createdAt,value
2023-05-10T00:01:36.446Z,95.62
2023-05-10T00:04:39.658Z,96.79
2023-05-10T00:07:45.673Z,97.89
2023-05-10T00:10:50.019Z,97.90
2023-05-10T00:13:52.574Z,99.07
2023-05-10T00:16:55.576Z,100.00
2023-05-10T00:19:58.621Z,100.00
2023-05-10T00:23:01.552Z,100.00
2023-05-10T00:26:04.053Z,100.00
2023-05-10T00:29:06.777Z,100.00
2023-05-10T00:32:09.358Z,100.00
2023-05-10T00:35:12.292Z,100.00
2023-05-10T00:38:15.313Z,100.00
2023-05-10T00:41:18.346Z,100.00
2023-05-10T00:44:21.538Z,100.00
2023-05-10T00:47:24.839Z,100.00
2023-05-10T00:50:27.467Z,100.00
2023-05-10T00:53:33.091Z,100.00
2023-05-10T00:56:35.732Z,100.00
2023-05-10T00:59:38.681Z,100.00
2023-05-10T01:02:42.440Z,100.00
2023-05-10T01:05:45.591Z,100.00
2023-05-10T01:08:48.452Z,100.00
2023-05-10T01:11:51.581Z,100.00
2023-05-10T01:14:55.456Z,100.00
2023-05-10T01:17:58.390Z,100.00
2023-05-10T01:21:21.577Z,100.00
2023-05-10T01:24:51.257Z,100.00
2023-05-10T01:28:12.339Z,100.00
2023-05-10T01:31:34.720Z,100.00
2023-05-10T01:34:46.022Z,100.00
2023-05-10T01:38:06.986Z,100.00
2023-05-10T01:41:19.594Z,100.00
2023-05-10T01:44:39.300Z,100.00
2023-05-10T01:47:45.756Z,100.00
2023-05-10T01:50:51.249Z,100.00
2023-05-10T01:54:01.782Z,100.00
2023-05-10T01:57:08.689Z,100.00
2023-05-10T02:00:13.170Z,100.00
2023-05-10T02:03:18.766Z,100.00
2023-05-10T02:06:23.191Z,100.00
2023-05-10T02:09:28.557Z,100.00
2023-05-10T02:12:34.283Z,100.00
2023-05-10T02:15:40.531Z,100.00
2023-05-10T02:18:44.561Z,99.51
2023-05-10T02:21:48.225Z,98.69
2023-05-10T02:24:51.893Z,98.00
2023-05-10T02:27:57.926Z,97.35
2023-05-10T02:31:01.655Z,96.72
2023-05-10T02:34:06.566Z,96.32
2023-05-10T02:37:10.562Z,96.71
2023-05-10T02:40:15.890Z,96.55
2023-05-10T02:43:19.990Z,96.70
2023-05-10T02:46:22.681Z,96.79
2023-05-10T02:49:25.507Z,96.84
2023-05-10T02:52:37.049Z,96.79
2023-05-10T02:55:42.200Z,97.26
2023-05-10T02:58:44.783Z,96.86
2023-05-10T03:01:47.860Z,96.60
2023-05-10T03:04:50.520Z,96.96
2023-05-10T03:07:54.490Z,96.27
2023-05-10T03:11:26.140Z,96.28
2023-05-10T03:14:56.767Z,96.31
2023-05-10T03:18:09.150Z,96.65
2023-05-10T03:21:14.666Z,95.79
2023-05-10T03:24:21.068Z,96.31
2023-05-10T03:27:26.357Z,96.21
2023-05-10T03:30:30.435Z,97.05
2023-05-10T03:33:33.501Z,96.34
2023-05-10T03:36:36.426Z,97.17
2023-05-10T03:39:39.298Z,96.78
2023-05-10T03:42:42.356Z,96.63
2023-05-10T03:45:45.263Z,96.58
2023-05-10T03:48:47.834Z,96.68
2023-05-10T03:51:50.571Z,96.55
2023-05-10T03:54:53.300Z,95.91
2023-05-10T03:57:56.267Z,95.63
2023-05-10T04:00:59.204Z,95.62
2023-05-10T04:04:02.496Z,95.23
2023-05-10T04:07:07.166Z,94.99
2023-05-10T04:10:10.454Z,94.96
2023-05-10T04:13:13.053Z,95.06
2023-05-10T04:16:16.062Z,95.28
2023-05-10T04:19:18.498Z,95.48
2023-05-10T04:22:21.949Z,96.41
2023-05-10T04:25:24.450Z,95.62
2023-05-10T04:28:28.229Z,95.34
2023-05-10T04:31:30.696Z,94.83
2023-05-10T04:34:35.157Z,94.94
2023-05-10T04:37:37.715Z,94.61
2023-05-10T04:40:40.820Z,95.27
2023-05-10T04:43:43.369Z,94.22
2023-05-10T04:46:46.584Z,93.74
2023-05-10T04:49:49.141Z,93.05
2023-05-10T04:52:53.211Z,91.79
2023-05-10T04:55:55.937Z,89.34
2023-05-10T04:58:58.719Z,88.23
2023-05-10T05:02:01.292Z,89.21
2023-05-10T05:05:04.350Z,89.13
2023-05-10T05:08:06.913Z,86.17
2023-05-10T05:11:10.213Z,82.37
2023-05-10T05:14:12.766Z,76.11
2023-05-10T05:17:16.584Z,75.53
2023-05-10T05:20:20.056Z,73.94
2023-05-10T05:23:25.950Z,74.81
2023-05-10T05:26:28.596Z,73.64
2023-05-10T05:29:31.837Z,76.59
2023-05-10T05:32:34.371Z,73.60
2023-05-10T05:35:37.161Z,73.39
2023-05-10T05:38:39.666Z,69.17
2023-05-10T05:41:43.440Z,64.26
2023-05-10T05:44:46.044Z,66.14
2023-05-10T05:47:49.077Z,69.42
2023-05-10T05:50:54.814Z,64.00
2023-05-10T05:53:57.650Z,61.65
2023-05-10T05:57:01.611Z,61.24
2023-05-10T06:00:05.433Z,62.19
2023-05-10T06:03:15.295Z,58.27
2023-05-10T06:06:21.090Z,57.67
2023-05-10T06:09:25.619Z,58.49
2023-05-10T06:12:28.419Z,55.11
2023-05-10T06:15:31.276Z,59.51
2023-05-10T06:18:34.202Z,64.17
2023-05-10T06:21:36.672Z,58.99
2023-05-10T06:24:39.409Z,60.24
2023-05-10T06:27:41.886Z,62.45
2023-05-10T06:30:45.493Z,60.96
2023-05-10T06:33:48.152Z,58.49
2023-05-10T06:36:51.196Z,60.83
2023-05-10T06:39:53.916Z,60.85
2023-05-10T06:42:56.675Z,55.98
2023-05-10T06:46:01.750Z,59.82
2023-05-10T06:49:04.542Z,55.60
2023-05-10T06:52:07.068Z,53.23
2023-05-10T06:55:30.208Z,57.24
2023-05-10T06:58:33.829Z,53.78
2023-05-10T07:01:36.681Z,53.76
2023-05-10T07:04:39.141Z,56.10
2023-05-10T07:07:42.177Z,55.40
2023-05-10T07:10:44.775Z,54.66
2023-05-10T07:13:47.517Z,58.23
2023-05-10T07:16:50.409Z,53.30
2023-05-10T07:19:53.173Z,50.43
2023-05-10T07:22:55.637Z,49.17
2023-05-10T07:26:00.374Z,48.15
2023-05-10T07:29:03.404Z,48.82
2023-05-10T07:32:06.826Z,50.18
2023-05-10T07:35:09.706Z,51.18
2023-05-10T07:38:12.428Z,48.56
2023-05-10T07:41:16.730Z,50.90
2023-05-10T07:44:21.221Z,53.56
2023-05-10T07:47:24.479Z,51.00
2023-05-10T07:50:27.940Z,49.65
2023-05-10T07:53:30.430Z,50.18
2023-05-10T07:56:33.998Z,48.40
2023-05-10T07:59:36.585Z,49.88
2023-05-10T08:02:39.478Z,51.75
2023-05-10T08:05:43.313Z,50.36
2023-05-10T08:08:52.552Z,48.53
2023-05-10T08:11:55.365Z,49.49
2023-05-10T08:14:58.191Z,47.94
2023-05-10T08:18:01.112Z,50.65
2023-05-10T08:21:03.753Z,48.58
2023-05-10T08:24:06.907Z,47.37
2023-05-10T08:27:09.842Z,45.93
2023-05-10T08:30:13.963Z,45.34
2023-05-10T08:33:16.659Z,45.06
2023-05-10T08:36:22.696Z,45.26
2023-05-10T08:39:30.544Z,47.66
2023-05-10T08:42:38.714Z,47.10
2023-05-10T08:45:49.844Z,49.13
2023-05-10T08:48:54.661Z,48.00
2023-05-10T08:52:00.669Z,49.30
2023-05-10T08:55:04.185Z,46.53
2023-05-10T08:58:07.639Z,49.26
2023-05-10T09:01:11.241Z,51.78
2023-05-10T09:04:14.138Z,47.44
2023-05-10T09:07:18.071Z,47.03
2023-05-10T09:10:21.588Z,48.31
2023-05-10T09:13:25.723Z,50.25
2023-05-10T09:16:28.251Z,47.77
2023-05-10T09:19:31.316Z,44.17
2023-05-10T09:22:35.089Z,43.48
2023-05-10T09:25:39.655Z,42.07
2023-05-10T09:28:58.802Z,45.12
2023-05-10T09:32:01.791Z,48.54
2023-05-10T09:35:29.440Z,45.49
2023-05-10T09:38:46.520Z,44.48
2023-05-10T09:41:49.385Z,47.15
2023-05-10T09:44:52.385Z,44.40
2023-05-10T09:47:55.660Z,47.61
2023-05-10T09:50:59.334Z,47.58
2023-05-10T09:54:16.900Z,42.25
2023-05-10T09:57:25.892Z,41.91
2023-05-10T10:00:29.198Z,45.81
2023-05-10T10:03:32.118Z,43.74
2023-05-10T10:06:41.461Z,44.66
2023-05-10T10:09:44.186Z,42.25
2023-05-10T10:12:46.806Z,41.95
2023-05-10T10:15:52.157Z,41.61
2023-05-10T10:18:55.258Z,38.58
2023-05-10T10:21:59.969Z,39.53
2023-05-10T10:25:03.129Z,39.06
2023-05-10T10:28:41.859Z,38.69
2023-05-10T10:32:04.138Z,42.28
2023-05-10T10:35:09.218Z,42.06
2023-05-10T10:38:13.916Z,43.42
2023-05-10T10:41:50.636Z,41.34
2023-05-10T10:45:12.968Z,39.60
2023-05-10T10:48:23.978Z,40.19
2023-05-10T10:51:29.993Z,39.51
2023-05-10T10:54:33.737Z,42.67
2023-05-10T10:57:42.061Z,39.92
2023-05-10T11:00:46.400Z,42.41
2023-05-10T11:04:04.170Z,38.77
2023-05-10T11:07:20.966Z,35.26
2023-05-10T11:10:25.128Z,36.45
2023-05-10T11:13:29.272Z,36.55
2023-05-10T11:16:43.876Z,40.99
2023-05-10T11:20:07.459Z,40.13
2023-05-10T11:23:16.773Z,40.55
2023-05-10T11:26:20.119Z,41.85
2023-05-10T11:29:22.885Z,41.64
2023-05-10T11:32:26.124Z,42.15
2023-05-10T11:35:29.060Z,41.68
2023-05-10T11:38:33.943Z,40.83
2023-05-10T11:41:36.449Z,41.67
2023-05-10T11:44:39.310Z,42.67
2023-05-10T11:47:44.234Z,42.27
2023-05-10T11:50:47.226Z,42.15
2023-05-10T11:53:51.699Z,42.80
2023-05-10T11:56:55.360Z,43.77
2023-05-10T11:59:59.384Z,43.02
2023-05-10T12:03:03.274Z,44.29
2023-05-10T12:06:08.091Z,43.61
2023-05-10T12:09:11.153Z,43.26
2023-05-10T12:12:17.915Z,43.23
2023-05-10T12:15:25.461Z,43.09
2023-05-10T12:18:29.336Z,43.44
2023-05-10T12:21:32.364Z,44.34
2023-05-10T12:24:39.232Z,45.15
2023-05-10T12:27:42.440Z,44.82
2023-05-10T12:30:45.443Z,45.23
2023-05-10T12:33:50.250Z,44.69
2023-05-10T12:36:54.158Z,44.56
2023-05-10T12:39:56.636Z,44.47
2023-05-10T12:42:59.598Z,45.01
2023-05-10T12:46:09.845Z,43.62
2023-05-10T12:49:12.865Z,42.99
2023-05-10T12:52:15.373Z,42.77
2023-05-10T12:55:18.335Z,43.43
2023-05-10T12:58:35.096Z,43.66
2023-05-10T13:01:39.338Z,43.13
2023-05-10T13:04:42.872Z,43.93
2023-05-10T13:07:46.196Z,43.11
2023-05-10T13:10:48.891Z,43.09
2023-05-10T13:13:52.554Z,42.02
2023-05-10T13:16:55.251Z,42.64
2023-05-10T13:19:58.041Z,39.22
2023-05-10T13:23:00.560Z,39.78
2023-05-10T13:26:03.370Z,40.24
2023-05-10T13:29:06.048Z,39.21
2023-05-10T13:32:09.000Z,39.11
2023-05-10T13:35:11.456Z,39.63
2023-05-10T13:38:14.800Z,39.24
2023-05-10T13:41:17.399Z,38.77
2023-05-10T13:44:21.702Z,39.01
2023-05-10T13:47:24.226Z,38.66
2023-05-10T13:50:27.969Z,38.55
2023-05-10T13:53:30.634Z,38.34
2023-05-10T13:56:33.901Z,38.77
2023-05-10T13:59:36.371Z,39.24
2023-05-10T14:02:39.714Z,38.96
2023-05-10T14:05:42.626Z,38.19
2023-05-10T14:08:45.115Z,37.49
2023-05-10T14:11:48.444Z,36.73
2023-05-10T14:14:50.939Z,37.57
2023-05-10T14:17:53.642Z,38.36
2023-05-10T14:20:56.408Z,38.01
2023-05-10T14:23:59.223Z,38.16
2023-05-10T14:27:02.475Z,38.11
2023-05-10T14:30:05.817Z,37.98
2023-05-10T14:33:08.995Z,37.82
2023-05-10T14:36:11.887Z,37.90
2023-05-10T14:39:14.456Z,37.84
2023-05-10T14:42:17.783Z,38.44
2023-05-10T14:45:20.646Z,40.11
2023-05-10T14:48:25.772Z,40.69
2023-05-10T14:51:28.303Z,40.78
2023-05-10T14:54:31.143Z,40.74
2023-05-10T14:57:34.296Z,40.40
2023-05-10T15:00:37.099Z,40.41
2023-05-10T15:03:40.775Z,40.51
2023-05-10T15:06:44.127Z,39.50
2023-05-10T15:09:46.753Z,39.80
2023-05-10T15:12:49.683Z,39.39
2023-05-10T15:15:52.263Z,39.70
2023-05-10T15:18:55.113Z,38.91
2023-05-10T15:21:57.689Z,38.93
2023-05-10T15:25:00.489Z,38.34
2023-05-10T15:28:03.670Z,38.48
2023-05-10T15:31:06.511Z,38.75
2023-05-10T15:34:08.930Z,38.90
2023-05-10T15:37:11.892Z,39.04
2023-05-10T15:40:14.400Z,39.39
2023-05-10T15:43:17.292Z,40.04
2023-05-10T15:46:20.931Z,40.82
2023-05-10T15:49:23.910Z,41.47
2023-05-10T15:52:26.499Z,41.24
2023-05-10T15:55:29.254Z,41.17
2023-05-10T15:58:31.725Z,41.20
2023-05-10T16:01:34.808Z,41.32
2023-05-10T16:04:38.053Z,41.70
2023-05-10T16:07:42.385Z,41.03
2023-05-10T16:10:45.324Z,41.06
2023-05-10T16:13:47.926Z,39.40
2023-05-10T16:16:51.346Z,39.39
2023-05-10T16:19:54.030Z,39.43
2023-05-10T16:22:57.051Z,39.19
2023-05-10T16:25:59.675Z,40.19
2023-05-10T16:29:02.886Z,42.54
2023-05-10T16:32:05.726Z,43.76
2023-05-10T16:35:10.887Z,44.91
2023-05-10T16:38:13.387Z,45.05
2023-05-10T16:41:17.028Z,45.08
2023-05-10T16:44:20.812Z,45.25
2023-05-10T16:47:26.916Z,45.69
2023-05-10T16:50:29.648Z,45.93
2023-05-10T16:53:32.558Z,46.67
2023-05-10T16:56:35.180Z,47.27
2023-05-10T16:59:38.281Z,47.78
2023-05-10T17:02:44.000Z,48.78
2023-05-10T17:05:47.064Z,49.17
2023-05-10T17:08:49.599Z,49.43
2023-05-10T17:11:52.620Z,49.93
2023-05-10T17:14:55.126Z,49.87
2023-05-10T17:17:58.165Z,50.17
2023-05-10T17:21:01.040Z,50.74
2023-05-10T17:24:03.974Z,50.97
2023-05-10T17:27:07.036Z,51.18
2023-05-10T17:30:10.205Z,50.94
2023-05-10T17:33:12.779Z,50.64
2023-05-10T17:36:15.479Z,51.43
2023-05-10T17:39:18.162Z,51.62
2023-05-10T17:42:21.281Z,51.54
2023-05-10T17:45:23.737Z,51.68
2023-05-10T17:48:26.730Z,51.84
2023-05-10T17:51:29.476Z,51.83
2023-05-10T17:54:32.487Z,52.60
2023-05-10T17:57:38.057Z,52.45
2023-05-10T18:00:40.963Z,52.51
2023-05-10T18:03:43.671Z,52.81
2023-05-10T18:06:48.464Z,52.68
2023-05-10T18:09:51.202Z,52.22
2023-05-10T18:12:53.667Z,52.06
2023-05-10T18:15:56.479Z,51.69
2023-05-10T18:18:59.050Z,51.77
2023-05-10T18:22:01.905Z,51.50
2023-05-10T18:25:04.982Z,51.09
2023-05-10T18:28:08.626Z,50.80
2023-05-10T18:31:11.209Z,50.95
2023-05-10T18:34:14.032Z,51.19
2023-05-10T18:37:16.994Z,51.16
2023-05-10T18:40:21.172Z,51.34
2023-05-10T18:43:23.707Z,51.34
2023-05-10T18:46:27.272Z,51.55
2023-05-10T18:49:29.815Z,51.68
2023-05-10T18:52:33.930Z,51.90
2023-05-10T18:55:36.477Z,52.02
2023-05-10T18:58:39.247Z,52.29
2023-05-10T19:01:41.822Z,52.36
2023-05-10T19:04:45.000Z,52.44
2023-05-10T19:07:47.856Z,52.74
2023-05-10T19:10:50.658Z,52.79
2023-05-10T19:13:53.312Z,52.97
2023-05-10T19:16:56.659Z,52.84
2023-05-10T19:20:02.112Z,53.08
2023-05-10T19:23:10.100Z,52.84
2023-05-10T19:26:13.189Z,52.70
2023-05-10T19:29:16.299Z,52.76
2023-05-10T19:32:18.817Z,52.84
2023-05-10T19:35:21.815Z,52.79
2023-05-10T19:38:25.704Z,52.71
2023-05-10T19:41:28.610Z,52.80
2023-05-10T19:44:31.072Z,52.96
2023-05-10T19:47:35.221Z,53.00
2023-05-10T19:50:38.528Z,53.08
2023-05-10T19:53:44.731Z,53.15
2023-05-10T19:56:47.448Z,53.06
2023-05-10T19:59:50.771Z,53.04
2023-05-10T20:02:54.217Z,53.28
2023-05-10T20:06:01.029Z,53.47
2023-05-10T20:09:04.139Z,53.54
2023-05-10T20:12:07.067Z,53.52
2023-05-10T20:15:10.177Z,53.77
2023-05-10T20:18:17.996Z,53.58
2023-05-10T20:21:22.328Z,53.89
2023-05-10T20:24:25.119Z,53.91
2023-05-10T20:27:27.650Z,53.80
2023-05-10T20:30:30.841Z,53.64
2023-05-10T20:33:33.384Z,53.52
2023-05-10T20:36:36.453Z,53.53
2023-05-10T20:39:39.253Z,53.35
2023-05-10T20:42:42.229Z,52.99
2023-05-10T20:45:44.692Z,53.08
2023-05-10T20:48:47.752Z,53.29
2023-05-10T20:51:50.980Z,53.53
2023-05-10T20:54:53.788Z,53.38
2023-05-10T20:57:57.291Z,53.37
2023-05-10T21:01:02.170Z,53.67
2023-05-10T21:04:04.686Z,53.59
2023-05-10T21:07:07.520Z,53.45
2023-05-10T21:10:11.675Z,53.35
2023-05-10T21:13:14.812Z,53.37
2023-05-10T21:16:18.961Z,53.52
2023-05-10T21:19:22.221Z,53.43
2023-05-10T21:22:24.609Z,53.63
2023-05-10T21:25:27.356Z,53.48
2023-05-10T21:28:30.456Z,53.81
2023-05-10T21:31:33.531Z,53.68
2023-05-10T21:34:36.108Z,53.55
2023-05-10T21:37:38.860Z,53.23
2023-05-10T21:40:41.518Z,53.18
2023-05-10T21:43:44.409Z,52.92
2023-05-10T21:46:46.877Z,52.61
2023-05-10T21:49:50.560Z,53.22
2023-05-10T21:52:53.318Z,53.13
2023-05-10T21:55:56.622Z,52.99
2023-05-10T21:58:59.084Z,53.21
2023-05-10T22:02:02.812Z,53.56
2023-05-10T22:05:06.270Z,53.66
2023-05-10T22:08:08.899Z,54.08
2023-05-10T22:11:11.700Z,54.17
2023-05-10T22:14:15.271Z,54.35
2023-05-10T22:17:18.242Z,54.68
2023-05-10T22:20:21.115Z,54.96
2023-05-10T22:23:23.926Z,55.46
2023-05-10T22:26:26.359Z,56.06
2023-05-10T22:29:31.970Z,56.00
2023-05-10T22:32:34.671Z,56.33
2023-05-10T22:35:41.004Z,56.39
2023-05-10T22:38:43.461Z,56.73
2023-05-10T22:41:46.617Z,57.44
2023-05-10T22:44:48.964Z,57.50
2023-05-10T22:47:51.725Z,57.87
2023-05-10T22:50:54.280Z,58.47
2023-05-10T22:53:57.064Z,59.01
2023-05-10T22:56:59.580Z,58.70
2023-05-10T23:00:05.145Z,59.11
2023-05-10T23:03:07.749Z,59.99
2023-05-10T23:06:10.745Z,59.89
2023-05-10T23:09:13.226Z,60.09
2023-05-10T23:12:16.713Z,60.18
2023-05-10T23:15:19.193Z,60.38
2023-05-10T23:18:22.312Z,60.82
2023-05-10T23:21:25.350Z,61.13
2023-05-10T23:24:28.156Z,61.37
2023-05-10T23:27:32.027Z,61.47
2023-05-10T23:30:34.719Z,61.43
2023-05-10T23:33:37.260Z,61.31
2023-05-10T23:36:39.999Z,61.23
2023-05-10T23:39:42.925Z,61.76
2023-05-10T23:42:45.788Z,62.22
2023-05-10T23:45:58.294Z,62.55
2023-05-10T23:49:01.113Z,62.67
2023-05-10T23:52:03.888Z,62.95
2023-05-10T23:55:07.409Z,63.23
2023-05-10T23:58:09.839Z,63.41
